sensor_id;sensor_type;location;lat;lon;timestamp;temperature;humidity
52669;DHT22;59898;52.786;6.892;2022-08-03T00:02:02;22.50;99.90
52669;DHT22;59898;52.786;6.892;2022-08-03T00:05:23;22.50;99.90
52669;DHT22;59898;52.786;6.892;2022-08-03T00:08:44;22.50;99.90
52669;DHT22;59898;52.786;6.892;2022-08-03T00:12:05;22.50;99.90
52669;DHT22;59898;52.786;6.892;2022-08-03T00:15:25;22.60;99.90
52669;DHT22;59898;52.786;6.892;2022-08-03T00:18:46;22.60;99.90
52669;DHT22;59898;52.786;6.892;2022-08-03T00:22:07;22.60;99.90
52669;DHT22;59898;52.786;6.892;2022-08-03T00:25:27;22.50;99.90
52669;DHT22;59898;52.786;6.892;2022-08-03T00:28:48;22.50;99.90
52669;DHT22;59898;52.786;6.892;2022-08-03T00:32:09;22.50;99.90
52669;DHT22;59898;52.786;6.892;2022-08-03T00:35:30;22.50;99.90
52669;DHT22;59898;52.786;6.892;2022-08-03T00:38:51;22.50;99.90
52669;DHT22;59898;52.786;6.892;2022-08-03T00:42:12;22.50;99.90
52669;DHT22;59898;52.786;6.892;2022-08-03T00:45:36;22.50;99.90
52669;DHT22;59898;52.786;6.892;2022-08-03T00:48:57;22.40;99.90
52669;DHT22;59898;52.786;6.892;2022-08-03T00:52:17;22.30;99.90
52669;DHT22;59898;52.786;6.892;2022-08-03T00:55:39;22.20;99.90
52669;DHT22;59898;52.786;6.892;2022-08-03T00:59:00;22.00;99.90
52669;DHT22;59898;52.786;6.892;2022-08-03T01:02:22;21.90;99.90
52669;DHT22;59898;52.786;6.892;2022-08-03T01:05:51;21.80;99.90
52669;DHT22;59898;52.786;6.892;2022-08-03T01:09:45;21.70;99.90
52669;DHT22;59898;52.786;6.892;2022-08-03T01:20:55;21.50;99.90
52669;DHT22;59898;52.786;6.892;2022-08-03T01:31:39;21.50;99.90
52669;DHT22;59898;52.786;6.892;2022-08-03T01:35:20;21.40;99.90
52669;DHT22;59898;52.786;6.892;2022-08-03T01:38:45;21.40;99.90
52669;DHT22;59898;52.786;6.892;2022-08-03T01:42:09;21.40;99.90
52669;DHT22;59898;52.786;6.892;2022-08-03T01:45:31;21.50;99.90
52669;DHT22;59898;52.786;6.892;2022-08-03T01:48:54;21.40;99.90
52669;DHT22;59898;52.786;6.892;2022-08-03T01:52:19;21.40;99.90
52669;DHT22;59898;52.786;6.892;2022-08-03T01:55:43;21.30;99.90
52669;DHT22;59898;52.786;6.892;2022-08-03T01:59:06;21.30;99.90
52669;DHT22;59898;52.786;6.892;2022-08-03T02:02:28;21.30;99.90
52669;DHT22;59898;52.786;6.892;2022-08-03T02:05:51;21.30;99.90
52669;DHT22;59898;52.786;6.892;2022-08-03T02:09:14;21.30;99.90
52669;DHT22;59898;52.786;6.892;2022-08-03T02:12:36;21.30;99.90
52669;DHT22;59898;52.786;6.892;2022-08-03T02:15:58;21.20;99.90
52669;DHT22;59898;52.786;6.892;2022-08-03T02:19:19;21.20;99.90
52669;DHT22;59898;52.786;6.892;2022-08-03T02:22:42;21.20;99.90
52669;DHT22;59898;52.786;6.892;2022-08-03T02:26:04;21.20;99.90
52669;DHT22;59898;52.786;6.892;2022-08-03T02:29:28;21.10;99.90
52669;DHT22;59898;52.786;6.892;2022-08-03T02:32:54;21.00;99.90
52669;DHT22;59898;52.786;6.892;2022-08-03T02:36:22;21.00;99.90
52669;DHT22;59898;52.786;6.892;2022-08-03T02:39:46;20.90;99.90
52669;DHT22;59898;52.786;6.892;2022-08-03T02:43:10;20.90;99.90
52669;DHT22;59898;52.786;6.892;2022-08-03T02:46:35;20.80;99.90
52669;DHT22;59898;52.786;6.892;2022-08-03T02:49:58;20.80;99.90
52669;DHT22;59898;52.786;6.892;2022-08-03T02:53:21;20.70;99.90
52669;DHT22;59898;52.786;6.892;2022-08-03T02:56:44;20.60;99.90
52669;DHT22;59898;52.786;6.892;2022-08-03T03:00:06;20.50;99.90
52669;DHT22;59898;52.786;6.892;2022-08-03T03:03:27;20.40;99.90
52669;DHT22;59898;52.786;6.892;2022-08-03T03:06:49;20.40;99.90
52669;DHT22;59898;52.786;6.892;2022-08-03T03:10:10;20.40;99.90
52669;DHT22;59898;52.786;6.892;2022-08-03T03:13:32;20.30;99.90
52669;DHT22;59898;52.786;6.892;2022-08-03T03:16:54;20.30;99.90
52669;DHT22;59898;52.786;6.892;2022-08-03T03:20:16;20.20;99.90
52669;DHT22;59898;52.786;6.892;2022-08-03T03:23:38;20.20;99.90
52669;DHT22;59898;52.786;6.892;2022-08-03T03:27:00;20.20;99.90
52669;DHT22;59898;52.786;6.892;2022-08-03T03:30:21;20.20;99.90
52669;DHT22;59898;52.786;6.892;2022-08-03T03:33:42;20.30;99.90
52669;DHT22;59898;52.786;6.892;2022-08-03T03:37:03;20.30;99.90
52669;DHT22;59898;52.786;6.892;2022-08-03T03:40:24;20.30;99.90
52669;DHT22;59898;52.786;6.892;2022-08-03T03:43:46;20.30;99.90
52669;DHT22;59898;52.786;6.892;2022-08-03T03:47:08;20.30;99.90
52669;DHT22;59898;52.786;6.892;2022-08-03T03:50:30;20.30;99.90
52669;DHT22;59898;52.786;6.892;2022-08-03T03:53:56;20.30;99.90
52669;DHT22;59898;52.786;6.892;2022-08-03T03:57:17;20.30;99.90
52669;DHT22;59898;52.786;6.892;2022-08-03T04:00:38;20.30;99.90
52669;DHT22;59898;52.786;6.892;2022-08-03T04:03:58;20.30;99.90
52669;DHT22;59898;52.786;6.892;2022-08-03T04:11:38;20.30;99.90
52669;DHT22;59898;52.786;6.892;2022-08-03T04:15:00;20.30;99.90
52669;DHT22;59898;52.786;6.892;2022-08-03T04:18:22;20.30;99.90
52669;DHT22;59898;52.786;6.892;2022-08-03T04:21:47;20.20;99.90
52669;DHT22;59898;52.786;6.892;2022-08-03T04:25:09;20.00;99.90
52669;DHT22;59898;52.786;6.892;2022-08-03T04:28:33;20.00;99.90
52669;DHT22;59898;52.786;6.892;2022-08-03T04:31:56;20.00;99.90
52669;DHT22;59898;52.786;6.892;2022-08-03T04:35:19;20.00;99.90
52669;DHT22;59898;52.786;6.892;2022-08-03T04:39:12;19.90;99.90
52669;DHT22;59898;52.786;6.892;2022-08-03T04:42:32;20.00;99.90
52669;DHT22;59898;52.786;6.892;2022-08-03T04:45:53;20.00;99.90
52669;DHT22;59898;52.786;6.892;2022-08-03T04:49:15;20.00;99.90
52669;DHT22;59898;52.786;6.892;2022-08-03T04:52:36;20.00;99.90
52669;DHT22;59898;52.786;6.892;2022-08-03T04:56:03;20.00;99.90
52669;DHT22;59898;52.786;6.892;2022-08-03T04:59:24;20.10;99.90
52669;DHT22;59898;52.786;6.892;2022-08-03T05:02:45;20.20;99.90
52669;DHT22;59898;52.786;6.892;2022-08-03T05:06:06;20.20;99.90
52669;DHT22;59898;52.786;6.892;2022-08-03T05:09:27;20.30;99.90
52669;DHT22;59898;52.786;6.892;2022-08-03T05:12:47;20.40;99.90
52669;DHT22;59898;52.786;6.892;2022-08-03T05:16:11;20.40;99.90
52669;DHT22;59898;52.786;6.892;2022-08-03T05:19:33;20.50;99.90
52669;DHT22;59898;52.786;6.892;2022-08-03T05:22:54;20.50;99.90
52669;DHT22;59898;52.786;6.892;2022-08-03T05:26:15;20.60;99.90
52669;DHT22;59898;52.786;6.892;2022-08-03T05:29:36;20.60;99.90
52669;DHT22;59898;52.786;6.892;2022-08-03T05:32:57;20.60;99.90
52669;DHT22;59898;52.786;6.892;2022-08-03T05:36:19;20.70;99.90
52669;DHT22;59898;52.786;6.892;2022-08-03T05:39:39;20.70;99.90
52669;DHT22;59898;52.786;6.892;2022-08-03T05:43:01;20.80;99.90
52669;DHT22;59898;52.786;6.892;2022-08-03T05:46:22;20.90;99.90
52669;DHT22;59898;52.786;6.892;2022-08-03T05:49:43;21.00;99.90
52669;DHT22;59898;52.786;6.892;2022-08-03T05:53:03;21.00;99.90
52669;DHT22;59898;52.786;6.892;2022-08-03T05:56:24;21.10;99.90
52669;DHT22;59898;52.786;6.892;2022-08-03T05:59:45;21.10;99.90
52669;DHT22;59898;52.786;6.892;2022-08-03T06:03:05;21.20;99.90
52669;DHT22;59898;52.786;6.892;2022-08-03T06:06:26;21.20;99.90
52669;DHT22;59898;52.786;6.892;2022-08-03T06:09:47;21.20;99.90
52669;DHT22;59898;52.786;6.892;2022-08-03T06:13:08;21.30;99.90
52669;DHT22;59898;52.786;6.892;2022-08-03T06:16:28;21.40;99.90
52669;DHT22;59898;52.786;6.892;2022-08-03T06:19:51;21.50;99.90
52669;DHT22;59898;52.786;6.892;2022-08-03T06:23:12;21.50;99.90
52669;DHT22;59898;52.786;6.892;2022-08-03T06:26:33;21.50;99.90
52669;DHT22;59898;52.786;6.892;2022-08-03T06:29:54;21.50;99.90
52669;DHT22;59898;52.786;6.892;2022-08-03T06:33:15;21.60;99.90
52669;DHT22;59898;52.786;6.892;2022-08-03T06:36:36;21.70;99.90
52669;DHT22;59898;52.786;6.892;2022-08-03T06:39:57;21.80;99.90
52669;DHT22;59898;52.786;6.892;2022-08-03T06:43:17;21.80;99.90
52669;DHT22;59898;52.786;6.892;2022-08-03T06:46:38;21.90;99.90
52669;DHT22;59898;52.786;6.892;2022-08-03T06:49:59;22.10;99.90
52669;DHT22;59898;52.786;6.892;2022-08-03T06:53:19;22.30;99.90
52669;DHT22;59898;52.786;6.892;2022-08-03T06:56:40;22.20;99.90
52669;DHT22;59898;52.786;6.892;2022-08-03T07:00:01;22.20;99.90
52669;DHT22;59898;52.786;6.892;2022-08-03T07:03:22;22.20;99.90
52669;DHT22;59898;52.786;6.892;2022-08-03T07:06:43;22.20;99.90
52669;DHT22;59898;52.786;6.892;2022-08-03T07:10:04;22.30;99.90
52669;DHT22;59898;52.786;6.892;2022-08-03T07:13:25;22.30;99.90
52669;DHT22;59898;52.786;6.892;2022-08-03T07:16:46;22.40;99.90
52669;DHT22;59898;52.786;6.892;2022-08-03T07:20:07;22.50;99.90
52669;DHT22;59898;52.786;6.892;2022-08-03T07:23:28;22.50;99.90
52669;DHT22;59898;52.786;6.892;2022-08-03T07:26:49;22.70;99.90
52669;DHT22;59898;52.786;6.892;2022-08-03T07:30:10;22.90;99.90
52669;DHT22;59898;52.786;6.892;2022-08-03T07:33:31;23.00;99.90
52669;DHT22;59898;52.786;6.892;2022-08-03T07:36:52;23.00;99.90
52669;DHT22;59898;52.786;6.892;2022-08-03T07:40:12;23.00;99.90
52669;DHT22;59898;52.786;6.892;2022-08-03T07:43:33;23.00;99.90
52669;DHT22;59898;52.786;6.892;2022-08-03T07:46:54;23.00;99.90
52669;DHT22;59898;52.786;6.892;2022-08-03T07:50:14;23.10;99.90
52669;DHT22;59898;52.786;6.892;2022-08-03T07:53:35;23.10;99.90
52669;DHT22;59898;52.786;6.892;2022-08-03T07:56:56;23.20;99.90
52669;DHT22;59898;52.786;6.892;2022-08-03T08:00:18;23.20;99.90
52669;DHT22;59898;52.786;6.892;2022-08-03T08:03:38;23.40;99.90
52669;DHT22;59898;52.786;6.892;2022-08-03T08:06:59;23.50;99.90
52669;DHT22;59898;52.786;6.892;2022-08-03T08:10:20;23.60;99.90
52669;DHT22;59898;52.786;6.892;2022-08-03T08:13:41;23.60;99.90
52669;DHT22;59898;52.786;6.892;2022-08-03T08:17:01;23.80;99.90
52669;DHT22;59898;52.786;6.892;2022-08-03T08:20:28;24.10;99.90
52669;DHT22;59898;52.786;6.892;2022-08-03T08:23:49;24.30;99.90
52669;DHT22;59898;52.786;6.892;2022-08-03T08:27:10;24.50;99.90
52669;DHT22;59898;52.786;6.892;2022-08-03T08:30:32;24.50;99.90
52669;DHT22;59898;52.786;6.892;2022-08-03T08:33:53;24.70;99.90
52669;DHT22;59898;52.786;6.892;2022-08-03T08:37:14;24.90;99.90
52669;DHT22;59898;52.786;6.892;2022-08-03T08:40:34;25.10;99.90
52669;DHT22;59898;52.786;6.892;2022-08-03T08:43:55;25.30;99.90
52669;DHT22;59898;52.786;6.892;2022-08-03T08:47:18;25.50;99.90
52669;DHT22;59898;52.786;6.892;2022-08-03T08:50:39;25.60;99.90
52669;DHT22;59898;52.786;6.892;2022-08-03T08:54:01;25.60;99.90
52669;DHT22;59898;52.786;6.892;2022-08-03T08:57:33;25.60;99.90
52669;DHT22;59898;52.786;6.892;2022-08-03T09:00:54;25.80;99.90
52669;DHT22;59898;52.786;6.892;2022-08-03T09:04:15;25.80;99.90
52669;DHT22;59898;52.786;6.892;2022-08-03T09:07:36;25.80;99.90
52669;DHT22;59898;52.786;6.892;2022-08-03T09:10:57;25.80;99.90
52669;DHT22;59898;52.786;6.892;2022-08-03T09:14:18;25.90;99.90
52669;DHT22;59898;52.786;6.892;2022-08-03T09:17:39;25.90;99.90
52669;DHT22;59898;52.786;6.892;2022-08-03T09:21:13;26.00;99.90
52669;DHT22;59898;52.786;6.892;2022-08-03T09:24:35;26.20;99.90
52669;DHT22;59898;52.786;6.892;2022-08-03T09:28:04;26.30;99.90
52669;DHT22;59898;52.786;6.892;2022-08-03T09:31:36;26.50;99.90
52669;DHT22;59898;52.786;6.892;2022-08-03T09:35:02;26.50;99.90
52669;DHT22;59898;52.786;6.892;2022-08-03T09:38:24;26.40;99.90
52669;DHT22;59898;52.786;6.892;2022-08-03T09:42:34;26.50;99.90
52669;DHT22;59898;52.786;6.892;2022-08-03T09:45:30;26.70;99.90
52669;DHT22;59898;52.786;6.892;2022-08-03T09:48:51;27.00;99.90
52669;DHT22;59898;52.786;6.892;2022-08-03T09:52:17;27.10;99.90
52669;DHT22;59898;52.786;6.892;2022-08-03T09:55:55;27.30;99.90
52669;DHT22;59898;52.786;6.892;2022-08-03T09:59:43;27.50;99.90
52669;DHT22;59898;52.786;6.892;2022-08-03T10:03:04;27.60;99.90
52669;DHT22;59898;52.786;6.892;2022-08-03T10:06:25;27.40;99.90
52669;DHT22;59898;52.786;6.892;2022-08-03T10:09:54;27.60;99.90
52669;DHT22;59898;52.786;6.892;2022-08-03T10:13:17;27.70;99.90
52669;DHT22;59898;52.786;6.892;2022-08-03T10:16:39;27.90;99.90
52669;DHT22;59898;52.786;6.892;2022-08-03T10:19:59;28.10;99.90
52669;DHT22;59898;52.786;6.892;2022-08-03T10:23:20;28.10;99.90
52669;DHT22;59898;52.786;6.892;2022-08-03T10:26:43;28.10;99.90
52669;DHT22;59898;52.786;6.892;2022-08-03T10:30:10;28.10;99.90
52669;DHT22;59898;52.786;6.892;2022-08-03T10:33:34;28.10;99.90
52669;DHT22;59898;52.786;6.892;2022-08-03T10:36:59;28.30;99.90
52669;DHT22;59898;52.786;6.892;2022-08-03T10:40:22;28.40;99.90
52669;DHT22;59898;52.786;6.892;2022-08-03T10:43:55;28.40;99.90
52669;DHT22;59898;52.786;6.892;2022-08-03T10:47:17;28.40;99.90
52669;DHT22;59898;52.786;6.892;2022-08-03T10:50:38;28.50;99.90
52669;DHT22;59898;52.786;6.892;2022-08-03T10:54:00;28.70;99.90
52669;DHT22;59898;52.786;6.892;2022-08-03T10:57:49;28.90;99.70
52669;DHT22;59898;52.786;6.892;2022-08-03T11:01:11;29.00;99.20
52669;DHT22;59898;52.786;6.892;2022-08-03T11:04:32;29.20;99.40
52669;DHT22;59898;52.786;6.892;2022-08-03T11:12:20;29.50;98.50
52669;DHT22;59898;52.786;6.892;2022-08-03T11:15:44;29.70;98.60
52669;DHT22;59898;52.786;6.892;2022-08-03T11:19:08;29.80;98.00
52669;DHT22;59898;52.786;6.892;2022-08-03T11:22:47;29.70;97.70
52669;DHT22;59898;52.786;6.892;2022-08-03T11:29:35;29.70;96.80
52669;DHT22;59898;52.786;6.892;2022-08-03T11:32:57;29.90;96.70
52669;DHT22;59898;52.786;6.892;2022-08-03T11:36:18;29.90;96.70
52669;DHT22;59898;52.786;6.892;2022-08-03T11:39:43;30.10;96.80
52669;DHT22;59898;52.786;6.892;2022-08-03T11:43:09;30.20;96.40
52669;DHT22;59898;52.786;6.892;2022-08-03T11:46:36;30.30;96.40
52669;DHT22;59898;52.786;6.892;2022-08-03T11:49:58;30.30;96.10
52669;DHT22;59898;52.786;6.892;2022-08-03T11:53:21;30.50;96.10
52669;DHT22;59898;52.786;6.892;2022-08-03T11:56:47;31.10;98.40
52669;DHT22;59898;52.786;6.892;2022-08-03T12:00:21;30.60;97.30
52669;DHT22;59898;52.786;6.892;2022-08-03T12:03:42;30.80;95.80
52669;DHT22;59898;52.786;6.892;2022-08-03T12:07:03;30.60;95.40
52669;DHT22;59898;52.786;6.892;2022-08-03T12:10:24;30.60;95.60
52669;DHT22;59898;52.786;6.892;2022-08-03T12:13:47;30.80;95.60
52669;DHT22;59898;52.786;6.892;2022-08-03T12:17:09;30.70;95.60
52669;DHT22;59898;52.786;6.892;2022-08-03T12:20:31;30.80;95.20
52669;DHT22;59898;52.786;6.892;2022-08-03T12:24:00;30.60;94.60
52669;DHT22;59898;52.786;6.892;2022-08-03T12:27:25;30.60;94.80
52669;DHT22;59898;52.786;6.892;2022-08-03T12:30:49;30.70;94.70
52669;DHT22;59898;52.786;6.892;2022-08-03T12:34:11;30.70;94.60
52669;DHT22;59898;52.786;6.892;2022-08-03T12:37:33;30.70;94.50
52669;DHT22;59898;52.786;6.892;2022-08-03T12:40:58;30.80;94.40
52669;DHT22;59898;52.786;6.892;2022-08-03T12:44:29;31.00;93.90
52669;DHT22;59898;52.786;6.892;2022-08-03T12:51:15;31.10;93.80
52669;DHT22;59898;52.786;6.892;2022-08-03T12:54:35;31.10;93.30
52669;DHT22;59898;52.786;6.892;2022-08-03T12:57:56;31.10;92.80
52669;DHT22;59898;52.786;6.892;2022-08-03T13:01:17;31.10;92.60
52669;DHT22;59898;52.786;6.892;2022-08-03T13:04:38;31.10;92.40
52669;DHT22;59898;52.786;6.892;2022-08-03T13:07:58;31.30;91.80
52669;DHT22;59898;52.786;6.892;2022-08-03T13:11:26;31.50;91.70
52669;DHT22;59898;52.786;6.892;2022-08-03T13:14:56;31.70;91.60
52669;DHT22;59898;52.786;6.892;2022-08-03T13:18:17;31.90;91.50
52669;DHT22;59898;52.786;6.892;2022-08-03T13:21:38;32.10;91.00
52669;DHT22;59898;52.786;6.892;2022-08-03T13:24:59;32.00;90.90
52669;DHT22;59898;52.786;6.892;2022-08-03T13:28:20;32.00;90.90
52669;DHT22;59898;52.786;6.892;2022-08-03T13:31:41;31.90;90.80
52669;DHT22;59898;52.786;6.892;2022-08-03T13:35:03;32.00;90.40
52669;DHT22;59898;52.786;6.892;2022-08-03T13:38:23;31.90;90.40
52669;DHT22;59898;52.786;6.892;2022-08-03T13:41:44;31.80;90.20
52669;DHT22;59898;52.786;6.892;2022-08-03T13:45:05;31.70;90.20
52669;DHT22;59898;52.786;6.892;2022-08-03T13:48:26;31.70;90.10
52669;DHT22;59898;52.786;6.892;2022-08-03T13:51:47;31.80;88.90
52669;DHT22;59898;52.786;6.892;2022-08-03T13:55:08;31.80;88.80
52669;DHT22;59898;52.786;6.892;2022-08-03T13:58:29;31.90;88.50
52669;DHT22;59898;52.786;6.892;2022-08-03T14:01:51;31.80;88.40
52669;DHT22;59898;52.786;6.892;2022-08-03T14:05:11;31.90;88.30
52669;DHT22;59898;52.786;6.892;2022-08-03T14:08:32;31.90;87.80
52669;DHT22;59898;52.786;6.892;2022-08-03T14:11:53;32.00;87.50
52669;DHT22;59898;52.786;6.892;2022-08-03T14:15:15;32.10;87.90
52669;DHT22;59898;52.786;6.892;2022-08-03T14:18:35;32.00;87.40
52669;DHT22;59898;52.786;6.892;2022-08-03T14:21:57;32.10;87.50
52669;DHT22;59898;52.786;6.892;2022-08-03T14:25:17;32.10;87.20
52669;DHT22;59898;52.786;6.892;2022-08-03T14:28:38;32.10;87.50
52669;DHT22;59898;52.786;6.892;2022-08-03T14:31:59;32.00;87.00
52669;DHT22;59898;52.786;6.892;2022-08-03T14:35:20;32.00;87.30
52669;DHT22;59898;52.786;6.892;2022-08-03T14:38:41;32.00;87.90
52669;DHT22;59898;52.786;6.892;2022-08-03T14:42:01;31.90;89.10
52669;DHT22;59898;52.786;6.892;2022-08-03T14:45:22;32.00;90.00
52669;DHT22;59898;52.786;6.892;2022-08-03T14:48:43;32.00;90.00
52669;DHT22;59898;52.786;6.892;2022-08-03T14:52:04;32.00;90.20
52669;DHT22;59898;52.786;6.892;2022-08-03T14:55:25;32.10;90.40
52669;DHT22;59898;52.786;6.892;2022-08-03T14:58:45;32.10;90.60
52669;DHT22;59898;52.786;6.892;2022-08-03T15:02:06;32.10;90.40
52669;DHT22;59898;52.786;6.892;2022-08-03T15:05:27;32.00;90.40
52669;DHT22;59898;52.786;6.892;2022-08-03T15:08:48;32.00;90.70
52669;DHT22;59898;52.786;6.892;2022-08-03T15:12:09;32.00;90.80
52669;DHT22;59898;52.786;6.892;2022-08-03T15:15:30;32.10;90.80
52669;DHT22;59898;52.786;6.892;2022-08-03T15:18:50;32.00;90.50
52669;DHT22;59898;52.786;6.892;2022-08-03T15:22:11;32.10;90.50
52669;DHT22;59898;52.786;6.892;2022-08-03T15:25:34;32.00;90.40
52669;DHT22;59898;52.786;6.892;2022-08-03T15:28:56;32.00;90.40
52669;DHT22;59898;52.786;6.892;2022-08-03T15:32:17;32.00;90.30
52669;DHT22;59898;52.786;6.892;2022-08-03T15:35:37;31.90;90.30
52669;DHT22;59898;52.786;6.892;2022-08-03T15:38:59;31.80;90.40
52669;DHT22;59898;52.786;6.892;2022-08-03T15:42:20;31.80;90.50
52669;DHT22;59898;52.786;6.892;2022-08-03T15:45:40;31.80;90.70
52669;DHT22;59898;52.786;6.892;2022-08-03T15:49:04;31.70;90.40
52669;DHT22;59898;52.786;6.892;2022-08-03T15:52:25;31.70;90.00
52669;DHT22;59898;52.786;6.892;2022-08-03T15:55:45;31.60;88.90
52669;DHT22;59898;52.786;6.892;2022-08-03T15:59:06;31.50;88.10
52669;DHT22;59898;52.786;6.892;2022-08-03T16:02:27;31.40;87.60
52669;DHT22;59898;52.786;6.892;2022-08-03T16:05:47;31.30;87.30
52669;DHT22;59898;52.786;6.892;2022-08-03T16:09:08;31.20;87.00
52669;DHT22;59898;52.786;6.892;2022-08-03T16:12:29;31.10;86.90
52669;DHT22;59898;52.786;6.892;2022-08-03T16:15:51;31.10;87.20
52669;DHT22;59898;52.786;6.892;2022-08-03T16:19:12;31.10;87.20
52669;DHT22;59898;52.786;6.892;2022-08-03T16:22:32;31.10;87.30
52669;DHT22;59898;52.786;6.892;2022-08-03T16:25:53;31.10;87.80
52669;DHT22;59898;52.786;6.892;2022-08-03T16:29:14;31.10;87.70
52669;DHT22;59898;52.786;6.892;2022-08-03T16:32:35;31.10;88.00
52669;DHT22;59898;52.786;6.892;2022-08-03T16:35:57;31.10;88.30
52669;DHT22;59898;52.786;6.892;2022-08-03T16:39:18;31.10;88.40
52669;DHT22;59898;52.786;6.892;2022-08-03T16:42:39;31.10;88.40
52669;DHT22;59898;52.786;6.892;2022-08-03T16:45:59;31.10;88.60
52669;DHT22;59898;52.786;6.892;2022-08-03T16:49:20;31.10;89.10
52669;DHT22;59898;52.786;6.892;2022-08-03T16:52:41;31.00;89.50
52669;DHT22;59898;52.786;6.892;2022-08-03T16:56:02;31.00;89.90
52669;DHT22;59898;52.786;6.892;2022-08-03T16:59:22;31.10;90.00
52669;DHT22;59898;52.786;6.892;2022-08-03T17:02:44;31.10;90.10
52669;DHT22;59898;52.786;6.892;2022-08-03T17:06:07;31.10;90.20
52669;DHT22;59898;52.786;6.892;2022-08-03T17:09:28;31.20;90.40
52669;DHT22;59898;52.786;6.892;2022-08-03T17:12:50;31.10;90.40
52669;DHT22;59898;52.786;6.892;2022-08-03T17:16:12;31.00;90.60
52669;DHT22;59898;52.786;6.892;2022-08-03T17:19:34;31.00;90.90
52669;DHT22;59898;52.786;6.892;2022-08-03T17:26:42;30.90;91.20
52669;DHT22;59898;52.786;6.892;2022-08-03T17:30:25;30.80;91.30
52669;DHT22;59898;52.786;6.892;2022-08-03T17:34:06;30.70;91.70
52669;DHT22;59898;52.786;6.892;2022-08-03T17:37:27;30.60;91.70
52669;DHT22;59898;52.786;6.892;2022-08-03T17:40:48;30.50;91.80
52669;DHT22;59898;52.786;6.892;2022-08-03T17:44:09;30.40;91.90
52669;DHT22;59898;52.786;6.892;2022-08-03T17:47:31;30.40;92.00
52669;DHT22;59898;52.786;6.892;2022-08-03T17:50:57;30.40;92.10
52669;DHT22;59898;52.786;6.892;2022-08-03T17:54:38;30.40;92.10
52669;DHT22;59898;52.786;6.892;2022-08-03T17:58:09;30.40;92.20
52669;DHT22;59898;52.786;6.892;2022-08-03T18:01:53;30.40;92.40
52669;DHT22;59898;52.786;6.892;2022-08-03T18:05:35;30.30;92.60
52669;DHT22;59898;52.786;6.892;2022-08-03T18:08:57;30.20;92.80
52669;DHT22;59898;52.786;6.892;2022-08-03T18:12:25;30.20;92.90
52669;DHT22;59898;52.786;6.892;2022-08-03T18:15:52;30.20;93.10
52669;DHT22;59898;52.786;6.892;2022-08-03T18:19:18;30.20;93.00
52669;DHT22;59898;52.786;6.892;2022-08-03T18:22:39;30.20;93.10
52669;DHT22;59898;52.786;6.892;2022-08-03T18:26:01;30.20;93.10
52669;DHT22;59898;52.786;6.892;2022-08-03T18:29:23;30.10;93.20
52669;DHT22;59898;52.786;6.892;2022-08-03T18:32:45;30.10;93.40
52669;DHT22;59898;52.786;6.892;2022-08-03T18:36:10;30.00;93.50
52669;DHT22;59898;52.786;6.892;2022-08-03T18:39:31;29.90;93.60
52669;DHT22;59898;52.786;6.892;2022-08-03T18:42:54;29.90;93.70
52669;DHT22;59898;52.786;6.892;2022-08-03T18:46:38;29.90;93.80
52669;DHT22;59898;52.786;6.892;2022-08-03T18:50:30;29.80;93.90
52669;DHT22;59898;52.786;6.892;2022-08-03T18:54:17;29.70;94.00
52669;DHT22;59898;52.786;6.892;2022-08-03T19:01:38;29.50;94.20
52669;DHT22;59898;52.786;6.892;2022-08-03T19:05:05;29.40;94.30
52669;DHT22;59898;52.786;6.892;2022-08-03T19:08:46;29.30;94.40
52669;DHT22;59898;52.786;6.892;2022-08-03T19:12:16;29.30;94.50
52669;DHT22;59898;52.786;6.892;2022-08-03T19:15:41;29.20;94.60
52669;DHT22;59898;52.786;6.892;2022-08-03T19:19:04;29.10;94.80
52669;DHT22;59898;52.786;6.892;2022-08-03T19:22:27;29.10;94.90
52669;DHT22;59898;52.786;6.892;2022-08-03T19:25:49;29.00;94.90
52669;DHT22;59898;52.786;6.892;2022-08-03T19:29:10;28.90;94.90
52669;DHT22;59898;52.786;6.892;2022-08-03T19:32:32;28.90;95.00
52669;DHT22;59898;52.786;6.892;2022-08-03T19:35:53;28.90;95.00
52669;DHT22;59898;52.786;6.892;2022-08-03T19:39:14;28.80;94.90
52669;DHT22;59898;52.786;6.892;2022-08-03T19:42:39;28.70;94.90
52669;DHT22;59898;52.786;6.892;2022-08-03T19:46:03;28.70;94.90
52669;DHT22;59898;52.786;6.892;2022-08-03T19:49:31;28.70;95.00
52669;DHT22;59898;52.786;6.892;2022-08-03T19:52:53;28.60;95.20
52669;DHT22;59898;52.786;6.892;2022-08-03T19:56:22;28.60;95.40
52669;DHT22;59898;52.786;6.892;2022-08-03T19:59:44;28.60;95.50
52669;DHT22;59898;52.786;6.892;2022-08-03T20:03:08;28.60;95.60
52669;DHT22;59898;52.786;6.892;2022-08-03T20:06:29;28.50;95.60
52669;DHT22;59898;52.786;6.892;2022-08-03T20:09:51;28.30;95.80
52669;DHT22;59898;52.786;6.892;2022-08-03T20:13:14;28.20;96.00
52669;DHT22;59898;52.786;6.892;2022-08-03T20:16:35;28.10;96.00
52669;DHT22;59898;52.786;6.892;2022-08-03T20:19:55;27.80;96.20
52669;DHT22;59898;52.786;6.892;2022-08-03T20:23:17;27.60;96.60
52669;DHT22;59898;52.786;6.892;2022-08-03T20:26:39;27.30;96.90
52669;DHT22;59898;52.786;6.892;2022-08-03T20:30:00;27.00;97.20
52669;DHT22;59898;52.786;6.892;2022-08-03T20:33:21;26.80;97.40
52669;DHT22;59898;52.786;6.892;2022-08-03T20:36:42;26.60;97.60
52669;DHT22;59898;52.786;6.892;2022-08-03T20:40:04;26.50;97.90
52669;DHT22;59898;52.786;6.892;2022-08-03T20:43:25;26.50;98.20
52669;DHT22;59898;52.786;6.892;2022-08-03T20:46:46;26.50;98.40
52669;DHT22;59898;52.786;6.892;2022-08-03T20:50:07;26.50;98.60
52669;DHT22;59898;52.786;6.892;2022-08-03T20:53:28;26.40;98.90
52669;DHT22;59898;52.786;6.892;2022-08-03T20:56:49;26.30;99.10
52669;DHT22;59898;52.786;6.892;2022-08-03T21:00:11;26.20;99.30
52669;DHT22;59898;52.786;6.892;2022-08-03T21:03:33;26.10;99.50
52669;DHT22;59898;52.786;6.892;2022-08-03T21:06:57;25.90;99.80
52669;DHT22;59898;52.786;6.892;2022-08-03T21:10:20;25.90;99.90
52669;DHT22;59898;52.786;6.892;2022-08-03T21:13:57;25.70;99.90
52669;DHT22;59898;52.786;6.892;2022-08-03T21:17:19;25.60;99.90
52669;DHT22;59898;52.786;6.892;2022-08-03T21:20:42;25.40;99.90
52669;DHT22;59898;52.786;6.892;2022-08-03T21:24:03;25.30;99.90
52669;DHT22;59898;52.786;6.892;2022-08-03T21:27:29;25.20;99.90
52669;DHT22;59898;52.786;6.892;2022-08-03T21:30:50;25.10;99.90
52669;DHT22;59898;52.786;6.892;2022-08-03T21:34:13;25.00;99.90
52669;DHT22;59898;52.786;6.892;2022-08-03T21:37:35;24.90;99.90
52669;DHT22;59898;52.786;6.892;2022-08-03T21:40:57;24.90;99.90
52669;DHT22;59898;52.786;6.892;2022-08-03T21:44:19;24.80;99.90
52669;DHT22;59898;52.786;6.892;2022-08-03T21:47:40;24.70;99.90
52669;DHT22;59898;52.786;6.892;2022-08-03T21:51:03;24.60;99.90
52669;DHT22;59898;52.786;6.892;2022-08-03T21:54:32;24.50;99.90
52669;DHT22;59898;52.786;6.892;2022-08-03T21:57:55;24.50;99.90
52669;DHT22;59898;52.786;6.892;2022-08-03T22:01:25;24.40;99.90